Time;durP1;ratioP1;P1;durP2;ratioP2;P2;SDS_P1;SDS_P2;PMS_P1;PMS_P2;Temp;Humidity;BMP_temperature;BMP_pressure;BME280_temperature;BME280_humidity;BME280_pressure;Samples;Min_cycle;Max_cycle;Signal;HPM_P1;HPM_P2
2022/09/19 00:01:16;;;;;;;11.73;4.03;;;;;;;6.21;100.00;101819.88;5013537;28;20477;-76
2022/09/19 00:03:44;;;;;;;14.95;4.45;;;;;;;6.14;100.00;101812.91;5013045;28;20087;-76
2022/09/19 00:06:14;;;;;;;19.90;4.03;;;;;;;6.15;100.00;101812.94;5012876;28;20026;-75
2022/09/19 00:08:42;;;;;;;13.95;4.22;;;;;;;6.10;100.00;101807.69;5013110;28;20048;-76
2022/09/19 00:11:08;;;;;;;17.55;3.88;;;;;;;6.13;100.00;101821.53;5013443;28;20027;-76
2022/09/19 00:13:35;;;;;;;13.95;3.92;;;;;;;6.09;100.00;101815.47;5012207;28;20033;-76
2022/09/19 00:16:01;;;;;;;12.52;4.20;;;;;;;6.15;100.00;101812.03;5013746;28;20045;-75
2022/09/19 00:18:27;;;;;;;18.27;4.10;;;;;;;6.13;100.00;101812.03;5012274;28;20468;-76
2022/09/19 00:20:53;;;;;;;14.00;3.60;;;;;;;6.11;100.00;101821.50;5013105;28;20112;-76
2022/09/19 00:26:06;;;;;;;12.40;3.88;;;;;;;6.09;100.00;101816.31;5012707;28;20088;-75
2022/09/19 00:28:32;;;;;;;17.67;3.67;;;;;;;6.02;100.00;101809.34;5013001;28;20370;-76
2022/09/19 00:31:00;;;;;;;12.77;3.70;;;;;;;6.06;100.00;101815.41;5013242;28;20048;-76
2022/09/19 00:33:27;;;;;;;16.13;3.88;;;;;;;5.97;100.00;101804.97;5012232;28;20052;-76
2022/09/19 00:35:54;;;;;;;15.10;3.47;;;;;;;5.99;100.00;101816.22;5013057;28;20026;-76
2022/09/19 00:38:23;;;;;;;11.82;3.42;;;;;;;5.92;100.00;101820.44;5013089;28;20036;-76
2022/09/19 00:40:49;;;;;;;17.00;3.70;;;;;;;5.90;100.00;101813.50;5012403;28;20036;-76
2022/09/19 00:43:17;;;;;;;15.82;3.35;;;;;;;5.90;100.00;101824.69;5013179;28;20026;-76
2022/09/19 00:45:42;;;;;;;13.43;3.65;;;;;;;5.89;100.00;101827.28;5012692;28;20496;-76
2022/09/19 00:48:08;;;;;;;15.15;3.45;;;;;;;5.81;100.00;101822.00;5012043;28;20061;-76
2022/09/19 00:50:34;;;;;;;14.82;3.50;;;;;;;5.83;100.00;101828.94;5012581;28;20108;-76
2022/09/19 00:53:07;;;;;;;10.77;3.70;;;;;;;5.86;100.00;101822.94;5012888;28;20113;-76
2022/09/19 00:55:32;;;;;;;13.60;3.00;;;;;;;5.90;100.00;101818.66;5012092;28;20022;-75
2022/09/19 00:58:05;;;;;;;17.33;3.28;;;;;;;5.87;100.00;101825.53;5013044;28;20030;-76
2022/09/19 01:00:33;;;;;;;11.77;4.10;;;;;;;5.83;100.00;101818.59;5012578;28;20052;-76
2022/09/19 01:02:59;;;;;;;15.65;3.38;;;;;;;5.87;100.00;101830.69;5012819;28;20473;-76
2022/09/19 01:05:42;;;;;;;11.88;3.55;;;;;;;5.85;100.00;101826.34;5012535;28;20057;-76
2022/09/19 01:08:24;;;;;;;20.13;3.92;;;;;;;5.84;100.00;101822.03;5012219;28;20140;-76
2022/09/19 01:11:10;;;;;;;15.88;3.33;;;;;;;5.82;100.00;101836.66;5012835;28;20033;-76
2022/09/19 01:13:54;;;;;;;11.55;3.60;;;;;;;5.81;100.00;101832.34;5012604;28;20106;-76
2022/09/19 01:16:41;;;;;;;16.55;3.45;;;;;;;5.80;100.00;101836.66;5012217;28;20052;-76
2022/09/19 01:19:38;;;;;;;16.83;4.03;;;;;;;5.81;100.00;101834.94;5012784;28;20052;-76
2022/09/19 01:22:08;;;;;;;15.68;3.90;;;;;;;5.79;100.00;101836.66;5011828;28;20540;-76
2022/09/19 01:24:37;;;;;;;15.90;3.50;;;;;;;5.75;100.00;101840.91;5012306;28;20026;-75
2022/09/19 01:27:20;;;;;;;14.25;3.55;;;;;;;5.71;100.00;101844.31;5012620;28;20030;-76
2022/09/19 01:29:54;;;;;;;13.57;3.65;;;;;;;5.71;100.00;101849.47;5012046;28;20080;-76
2022/09/19 01:32:28;;;;;;;12.77;4.10;;;;;;;5.74;100.00;101853.84;5012707;28;20049;-76
2022/09/19 01:35:02;;;;;;;18.52;3.90;;;;;;;5.68;100.00;101851.16;5012495;28;20056;-76
2022/09/19 01:37:33;;;;;;;12.27;3.70;;;;;;;5.61;100.00;101843.31;5011720;28;20112;-76
2022/09/19 01:40:02;;;;;;;15.65;3.60;;;;;;;5.66;100.00;101860.63;5012613;28;20458;-75
2022/09/19 01:42:27;;;;;;;13.52;3.42;;;;;;;5.67;100.00;101852.88;5012074;28;20025;-76
2022/09/19 01:44:53;;;;;;;20.15;3.95;;;;;;;5.60;100.00;101851.06;5011724;28;20026;-76
2022/09/19 01:47:33;;;;;;;13.88;3.45;;;;;;;5.61;100.00;101852.81;5013385;28;20030;-75
2022/09/19 01:50:12;;;;;;;16.10;3.88;;;;;;;5.57;100.00;101851.03;5015401;28;20083;-76
2022/09/19 01:53:09;;;;;;;14.07;4.00;;;;;;;5.58;100.00;101852.75;5015463;28;20121;-76
2022/09/19 01:55:45;;;;;;;19.70;3.67;;;;;;;5.58;100.00;101857.94;5015648;28;20030;-76
2022/09/19 01:58:21;;;;;;;13.80;3.38;;;;;;;5.56;100.00;101854.47;5015247;28;20355;-76
2022/09/19 02:00:56;;;;;;;17.48;4.05;;;;;;;5.56;100.00;101850.16;5016010;28;20022;-76
2022/09/19 02:03:36;;;;;;;13.20;3.70;;;;;;;5.57;100.00;101853.63;5015495;28;20113;-76
2022/09/19 02:06:14;;;;;;;15.52;3.20;;;;;;;5.56;100.00;101862.25;5014813;28;20113;-76
2022/09/19 02:08:50;;;;;;;14.40;3.80;;;;;;;5.54;100.00;101856.16;5015187;28;20559;-76
2022/09/19 02:11:18;;;;;;;15.98;3.95;;;;;;;5.51;100.00;101858.72;5014922;28;20026;-76
2022/09/19 02:13:48;;;;;;;15.13;3.72;;;;;;;5.50;100.00;101847.50;5015118;28;20025;-76
2022/09/19 02:16:23;;;;;;;12.77;3.58;;;;;;;5.53;100.00;101851.84;5015402;28;20036;-76
2022/09/19 02:18:57;;;;;;;15.05;3.25;;;;;;;5.50;100.00;101854.41;5014957;28;20030;-76
2022/09/19 02:21:37;;;;;;;18.83;3.60;;;;;;;5.47;100.00;101851.75;5015222;28;20103;-75
2022/09/19 02:24:08;;;;;;;12.82;3.83;;;;;;;5.48;100.00;101861.25;5015383;28;20481;-76
2022/09/19 02:26:35;;;;;;;16.30;4.00;;;;;;;5.43;100.00;101858.63;5014159;28;20118;-75
2022/09/19 02:29:03;;;;;;;14.27;3.92;;;;;;;5.48;100.00;101864.69;5015090;28;20030;-76
2022/09/19 02:31:30;;;;;;;19.45;3.67;;;;;;;5.42;100.00;101867.19;5015095;28;20032;-75
2022/09/19 02:34:02;;;;;;;15.07;3.78;;;;;;;5.41;100.00;101865.47;5014334;28;20541;-75
2022/09/19 02:36:47;;;;;;;22.17;4.00;;;;;;;5.38;100.00;101866.28;5014702;28;20025;-76
2022/09/19 02:39:28;;;;;;;13.70;3.95;;;;;;;5.33;100.00;101861.88;5014279;28;20061;-76
2022/09/19 02:42:19;;;;;;;12.68;3.33;;;;;;;5.36;100.00;101862.84;5015162;28;20060;-76
2022/09/19 02:45:16;;;;;;;15.88;4.05;;;;;;;5.33;100.00;101870.53;5014690;28;20088;-76
2022/09/19 02:47:47;;;;;;;10.80;3.40;;;;;;;5.33;100.00;101878.31;5013717;28;20129;-76
2022/09/19 02:50:20;;;;;;;14.82;3.70;;;;;;;5.26;100.00;101875.59;5014994;28;20124;-75
2022/09/19 02:52:47;;;;;;;14.05;3.50;;;;;;;5.29;100.00;101883.38;5014679;28;20168;-76
2022/09/19 02:55:18;;;;;;;14.45;3.30;;;;;;;5.30;100.00;101878.25;5014083;28;20030;-76
2022/09/19 02:57:47;;;;;;;12.57;3.45;;;;;;;5.32;100.00;101879.13;5014339;28;20105;-76
2022/09/19 03:00:14;;;;;;;17.80;3.58;;;;;;;5.28;100.00;101871.31;5012941;28;20033;-76
2022/09/19 03:02:56;;;;;;;17.65;3.85;;;;;;;5.23;100.00;101872.94;5014181;28;20034;-76
2022/09/19 03:05:25;;;;;;;17.00;4.22;;;;;;;5.23;100.00;101873.84;5014351;28;20024;-75
2022/09/19 03:08:06;;;;;;;15.00;3.50;;;;;;;5.23;100.00;101876.44;5013732;28;20050;-76
2022/09/19 03:10:40;;;;;;;11.75;3.83;;;;;;;5.25;100.00;101877.31;5014208;28;20105;-76
2022/09/19 03:13:09;;;;;;;17.20;3.80;;;;;;;5.22;100.00;101885.00;5014651;28;20109;-76
2022/09/19 03:15:43;;;;;;;18.50;4.95;;;;;;;5.25;100.00;101881.59;5013382;28;20022;-76
2022/09/19 03:18:13;;;;;;;21.17;3.55;;;;;;;5.22;100.00;101877.25;5014494;28;20049;-76
2022/09/19 03:20:44;;;;;;;11.68;3.40;;;;;;;5.24;100.00;101885.91;5013949;28;20026;-76
2022/09/19 03:23:12;;;;;;;19.65;4.35;;;;;;;5.24;100.00;101877.28;5013436;28;20417;-76
2022/09/19 03:25:38;;;;;;;14.18;3.53;;;;;;;5.25;100.00;101873.84;5013772;28;20536;-76
2022/09/19 03:28:04;;;;;;;14.63;4.25;;;;;;;5.30;100.00;101887.72;5014217;28;20030;-76
2022/09/19 03:30:29;;;;;;;12.93;3.65;;;;;;;5.30;100.00;101867.03;5013193;28;20477;-75
2022/09/19 03:32:54;;;;;;;15.05;4.20;;;;;;;5.39;100.00;101883.56;5013960;28;20478;-76
2022/09/19 03:35:22;;;;;;;16.35;4.07;;;;;;;5.48;100.00;101885.41;5013394;28;20022;-76
2022/09/19 03:37:47;;;;;;;15.95;4.75;;;;;;;5.55;100.00;101883.75;5013894;28;20022;-75
2022/09/19 03:40:13;;;;;;;17.58;4.60;;;;;;;5.56;100.00;101877.75;5014058;28;20022;-75
2022/09/19 03:42:38;;;;;;;14.45;3.97;;;;;;;5.63;100.00;101883.03;5013026;28;20022;-76
2022/09/19 03:45:04;;;;;;;22.77;4.88;;;;;;;5.68;100.00;101882.22;5013759;28;20084;-76
2022/09/19 03:47:30;;;;;;;14.90;4.63;;;;;;;5.73;100.00;101886.59;5013324;28;20044;-76
2022/09/19 03:49:55;;;;;;;18.73;4.30;;;;;;;5.73;100.00;101884.03;5013034;28;20104;-76
2022/09/19 03:52:21;;;;;;;12.90;4.75;;;;;;;5.71;100.00;101885.69;5013136;28;20041;-76
2022/09/19 03:54:46;;;;;;;13.25;3.70;;;;;;;5.73;100.00;101884.03;5013600;28;20026;-75
2022/09/19 03:57:13;;;;;;;13.75;3.90;;;;;;;5.73;100.00;101875.41;5012892;28;20072;-76
2022/09/19 03:59:41;;;;;;;21.52;4.30;;;;;;;5.75;100.00;101877.13;5013483;28;20061;-76
2022/09/19 04:02:07;;;;;;;22.30;4.30;;;;;;;5.80;100.00;101885.84;5013731;28;20068;-76
2022/09/19 04:04:33;;;;;;;15.75;4.32;;;;;;;5.81;100.00;101890.16;5012430;28;20486;-76
2022/09/19 04:06:58;;;;;;;16.73;4.50;;;;;;;5.77;100.00;101878.03;5013501;28;20026;-76
2022/09/19 04:09:25;;;;;;;15.75;4.30;;;;;;;5.77;100.00;101885.78;5013172;28;20037;-75
2022/09/19 04:11:51;;;;;;;15.73;3.85;;;;;;;5.78;100.00;101890.09;5012569;28;20484;-76
2022/09/19 04:14:17;;;;;;;17.60;4.38;;;;;;;5.81;100.00;101899.63;5013451;28;20068;-76
2022/09/19 04:16:42;;;;;;;25.95;5.13;;;;;;;5.84;100.00;101897.09;5012908;28;20486;-76
2022/09/19 04:19:12;;;;;;;17.52;4.10;;;;;;;5.83;100.00;101896.22;5012540;28;20105;-76
2022/09/19 04:21:41;;;;;;;14.25;4.55;;;;;;;5.86;100.00;101900.56;5012882;28;20109;-76
2022/09/19 04:24:12;;;;;;;19.45;4.57;;;;;;;5.82;100.00;101899.66;5013702;28;20093;-76
2022/09/19 04:26:37;;;;;;;19.95;4.30;;;;;;;5.82;100.00;101894.50;5012132;28;20026;-75
2022/09/19 04:29:06;;;;;;;18.65;4.63;;;;;;;5.82;100.00;101903.94;5013006;28;20535;-76
2022/09/19 04:31:38;;;;;;;20.23;4.32;;;;;;;5.80;100.00;101901.34;5012679;28;20481;-76
2022/09/19 04:34:06;;;;;;;19.10;4.50;;;;;;;5.81;100.00;101903.09;5013036;28;20186;-75
2022/09/19 04:36:33;;;;;;;15.38;4.55;;;;;;;5.91;100.00;101910.97;5012718;28;20541;-76
2022/09/19 04:39:02;;;;;;;17.55;4.40;;;;;;;5.94;100.00;101914.50;5012542;28;20045;-76
2022/09/19 04:41:34;;;;;;;26.00;4.55;;;;;;;6.00;100.00;101909.41;5012782;28;20025;-76
2022/09/19 04:44:00;;;;;;;19.08;4.63;;;;;;;6.04;100.00;101913.75;5013011;28;20529;-76
2022/09/19 04:46:26;;;;;;;21.17;4.82;;;;;;;6.05;100.00;101917.25;5011859;28;20393;-76
2022/09/19 04:48:52;;;;;;;18.10;4.97;;;;;;;6.09;100.00;101921.59;5013180;28;20033;-76
2022/09/19 04:51:18;;;;;;;21.60;5.80;;;;;;;6.07;100.00;101916.38;5012694;28;20486;-76
2022/09/19 04:53:43;;;;;;;16.23;4.43;;;;;;;6.04;100.00;101915.50;5011926;28;20026;-76
2022/09/19 04:56:10;;;;;;;22.33;4.95;;;;;;;6.02;100.00;101922.38;5013109;28;20034;-76
2022/09/19 04:58:37;;;;;;;20.02;5.50;;;;;;;6.03;100.00;101924.97;5012616;28;20021;-75
2022/09/19 05:01:04;;;;;;;18.52;5.30;;;;;;;6.05;100.00;101925.00;5012035;28;20053;-76
2022/09/19 05:03:30;;;;;;;17.15;5.25;;;;;;;6.09;100.00;101930.22;5012707;28;20113;-76
2022/09/19 05:05:56;;;;;;;20.08;5.30;;;;;;;6.04;100.00;101918.94;5013015;28;20022;-76
2022/09/19 05:08:25;;;;;;;17.73;4.97;;;;;;;6.12;100.00;101926.81;5011769;28;20026;-76
2022/09/19 05:10:56;;;;;;;26.80;5.78;;;;;;;6.14;100.00;101927.69;5012737;28;20030;-76
2022/09/19 05:13:27;;;;;;;20.35;5.68;;;;;;;6.20;100.00;101934.66;5012435;28;20105;-76
2022/09/19 05:15:53;;;;;;;20.60;5.65;;;;;;;6.25;100.00;101931.28;5012244;28;20036;-76
2022/09/19 05:18:21;;;;;;;16.33;5.32;;;;;;;6.29;100.00;101932.19;5012883;28;20026;-76
2022/09/19 05:20:52;;;;;;;22.00;5.70;;;;;;;6.36;100.00;101935.72;5012226;28;20026;-76
2022/09/19 05:23:17;;;;;;;21.67;5.07;;;;;;;6.42;100.00;101938.38;5015196;28;20022;-76
2022/09/19 05:25:43;;;;;;;23.50;5.60;;;;;;;6.47;100.00;101936.69;5016221;28;20121;-76
2022/09/19 05:28:10;;;;;;;22.23;5.47;;;;;;;6.53;100.00;101941.94;5015362;28;20030;-76
2022/09/19 05:30:37;;;;;;;21.77;5.40;;;;;;;6.56;100.00;101947.16;5016232;28;20057;-76
2022/09/19 05:33:04;;;;;;;28.17;6.20;;;;;;;6.59;100.00;101942.03;5016430;28;20022;-76
2022/09/19 05:35:31;;;;;;;24.02;5.97;;;;;;;6.65;100.00;101951.59;5015272;28;20041;-76
2022/09/19 05:37:57;;;;;;;23.70;5.55;;;;;;;6.68;100.00;101938.66;5016217;28;20018;-76
2022/09/19 05:40:25;;;;;;;21.10;5.28;;;;;;;6.67;100.00;101942.97;5015882;28;20025;-76
2022/09/19 05:42:53;;;;;;;21.27;5.70;;;;;;;6.65;100.00;101947.28;5015348;28;20075;-76
2022/09/19 05:45:20;;;;;;;20.05;5.00;;;;;;;6.65;100.00;101941.22;5016022;28;20068;-76
2022/09/19 05:47:46;;;;;;;27.85;5.47;;;;;;;6.64;100.00;101952.41;5016016;28;20030;-76
2022/09/19 05:50:12;;;;;;;16.65;5.38;;;;;;;6.66;100.00;101955.91;5015359;28;20466;-75
2022/09/19 05:55:25;;;;;;;18.02;5.47;;;;;;;6.68;100.00;101956.81;5015900;28;20103;-76
2022/09/19 05:57:55;;;;;;;20.95;5.68;;;;;;;6.66;100.00;101959.38;5014993;28;20026;-76
2022/09/19 06:00:23;;;;;;;22.50;5.60;;;;;;;6.62;100.00;101960.19;5015473;28;20422;-76
2022/09/19 06:02:53;;;;;;;23.15;5.47;;;;;;;6.65;100.00;101961.97;5015811;28;20376;-77
2022/09/19 06:05:18;;;;;;;20.20;5.80;;;;;;;6.57;100.00;101961.84;5014983;28;20431;-76
2022/09/19 06:07:44;;;;;;;22.13;5.05;;;;;;;6.57;100.00;101959.25;5015232;28;20026;-76
2022/09/19 06:10:09;;;;;;;24.95;6.13;;;;;;;6.65;100.00;101961.97;5014955;28;20084;-75
2022/09/19 06:12:34;;;;;;;31.15;5.95;;;;;;;6.77;100.00;101964.69;5015397;28;20053;-76
2022/09/19 06:15:00;;;;;;;23.95;6.30;;;;;;;6.86;100.00;101966.47;5015584;28;20030;-76
2022/09/19 06:17:26;;;;;;;26.60;7.13;;;;;;;6.95;100.00;101971.75;5014745;28;20477;-76
2022/09/19 06:19:52;;;;;;;28.40;7.43;;;;;;;7.05;100.00;101968.38;5015425;28;20470;-76
2022/09/19 06:22:17;;;;;;;24.58;7.68;;;;;;;7.21;100.00;101965.06;5015289;28;20022;-76
2022/09/19 06:24:42;;;;;;;29.35;9.48;;;;;;;7.44;100.00;101970.44;5014416;28;20025;-76
2022/09/19 06:27:09;;;;;;;37.20;11.05;;;;;;;7.62;100.00;101974.00;5015321;28;20056;-76
2022/09/19 06:29:34;;;;;;;31.70;9.80;;;;;;;7.68;100.00;101971.47;5015093;28;20111;-76
2022/09/19 06:32:01;;;;;;;34.03;10.55;;;;;;;7.77;100.00;101975.84;5014602;28;20061;-76
2022/09/19 06:34:27;;;;;;;38.00;10.82;;;;;;;7.72;100.00;101979.31;5014648;28;20026;-76
2022/09/19 06:36:52;;;;;;;33.72;10.60;;;;;;;7.70;100.00;101980.13;5014857;28;20041;-76
2022/09/19 06:39:17;;;;;;;33.17;10.02;;;;;;;7.67;100.00;101965.41;5014591;28;20049;-76
2022/09/19 06:41:43;;;;;;;30.30;9.82;;;;;;;7.78;100.00;101981.03;5014605;28;20027;-76
2022/09/19 06:44:08;;;;;;;31.67;9.60;;;;;;;7.84;100.00;101982.81;5014958;28;20030;-76
2022/09/19 06:46:37;;;;;;;39.53;10.98;;;;;;;7.96;100.00;101988.09;5014206;28;20040;-75
2022/09/19 06:49:02;;;;;;;34.92;10.52;;;;;;;8.06;100.00;101986.41;5014707;28;20026;-76
2022/09/19 06:51:29;;;;;;;44.40;11.52;;;;;;;8.25;100.00;101989.97;5014219;28;20117;-76
2022/09/19 06:53:54;;;;;;;34.05;10.45;;;;;;;8.26;100.00;101992.56;5014199;28;20057;-77
2022/09/19 06:56:19;;;;;;;37.60;10.57;;;;;;;8.31;100.00;101990.00;5014631;28;20466;-75
2022/09/19 06:58:44;;;;;;;34.92;10.00;;;;;;;8.36;100.00;101983.94;5014507;28;20066;-76
2022/09/19 07:01:10;;;;;;;26.95;9.35;;;;;;;8.49;100.00;102002.22;5014023;28;20101;-76
2022/09/19 07:03:35;;;;;;;35.03;9.15;;;;;;;8.58;100.00;102010.91;5014304;28;20382;-76
2022/09/19 07:06:01;;;;;;;35.28;9.07;;;;;;;8.60;100.00;102009.22;5014461;28;20075;-76
2022/09/19 07:08:26;;;;;;;31.17;9.45;;;;;;;8.66;100.00;102009.22;5013455;28;20030;-76
2022/09/19 07:10:52;;;;;;;35.67;9.32;;;;;;;8.87;100.00;102007.53;5014608;28;20097;-76
2022/09/19 07:13:17;;;;;;;31.88;10.00;;;;;;;9.10;100.00;102013.66;5014300;28;20462;-76
2022/09/19 07:15:43;;;;;;;45.17;10.77;;;;;;;9.18;100.00;102013.66;5013718;28;20168;-76
2022/09/19 07:18:10;;;;;;;38.42;10.85;;;;;;;9.32;100.00;102026.69;5014358;28;20029;-76
2022/09/19 07:20:37;;;;;;;35.50;10.75;;;;;;;9.41;100.00;102021.47;5013211;28;20102;-76
2022/09/19 07:23:05;;;;;;;37.17;10.25;;;;;;;9.49;100.00;102024.09;5014354;28;20033;-76
2022/09/19 07:25:32;;;;;;;32.70;10.55;;;;;;;9.45;100.00;102025.81;5014124;28;20025;-76
2022/09/19 07:28:03;;;;;;;37.08;10.38;;;;;;;9.37;100.00;102031.00;5013414;28;20057;-76
2022/09/19 07:30:30;;;;;;;34.72;10.20;;;;;;;9.47;100.00;102028.41;5013814;28;20152;-76
2022/09/19 07:32:57;;;;;;;40.60;10.00;;;;;;;9.55;100.00;102027.56;5014168;28;20029;-76
2022/09/19 07:35:26;;;;;;;41.67;10.00;;;;;;;9.72;100.00;102037.09;5013258;28;20034;-75
2022/09/19 07:37:52;;;;;;;44.80;10.15;;;;;;;9.84;100.00;102048.38;5014145;28;20105;-77
2022/09/19 07:40:17;;;;;;;39.22;10.02;;;;;;;9.90;100.00;102049.22;5014060;28;20072;-76
2022/09/19 07:42:42;;;;;;;32.17;10.10;;;;;;;9.88;100.00;102048.38;5013080;28;20076;-76
2022/09/19 07:45:08;;;;;;;38.42;10.18;;;;;;;9.92;100.00;102043.13;5013380;28;20470;-80
2022/09/19 07:47:33;;;;;;;39.00;9.82;;;;;;;10.06;100.00;102046.56;5013300;28;20496;-81
2022/09/19 07:49:59;;;;;;;44.38;11.60;;;;;;;10.24;100.00;102048.28;5013227;28;20065;-76
2022/09/19 07:52:24;;;;;;;40.85;11.63;;;;;;;10.43;100.00;102049.13;5013599;28;20049;-75
2022/09/19 07:54:50;;;;;;;48.03;12.07;;;;;;;10.48;100.00;102047.34;5013775;28;20034;-75
2022/09/19 07:57:18;;;;;;;51.13;13.25;;;;;;;10.56;100.00;102044.72;5013043;28;20026;-76
2022/09/19 07:59:44;;;;;;;40.50;14.07;;;;;;;10.53;100.00;102055.19;5013257;28;20119;-75
2022/09/19 08:02:10;;;;;;;32.15;12.00;;;;;;;10.58;100.00;102052.53;5013610;28;20033;-75
2022/09/19 08:04:39;;;;;;;34.45;12.48;;;;;;;10.70;100.00;102052.50;5012643;28;20454;-76
2022/09/19 08:07:05;;;;;;;41.63;12.65;;;;;;;10.71;100.00;102055.06;5013343;28;20524;-75
2022/09/19 08:09:30;;;;;;;30.27;11.32;;;;;;;10.70;100.00;102062.94;5013252;28;20573;-75
2022/09/19 08:11:57;;;;;;;35.50;12.00;;;;;;;10.72;100.00;102072.44;5012725;28;20112;-75
2022/09/19 08:14:22;;;;;;;42.22;12.18;;;;;;;10.83;100.00;102069.81;5013156;28;20022;-76
2022/09/19 08:16:50;;;;;;;37.25;10.25;;;;;;;10.87;100.00;102066.31;5012761;28;20385;-75
2022/09/19 08:19:15;;;;;;;37.88;9.60;;;;;;;10.92;100.00;102067.16;5013548;28;20022;-76
2022/09/19 08:21:40;;;;;;;34.13;8.93;;;;;;;10.97;100.00;102073.22;5013127;28;20363;-75
2022/09/19 08:24:06;;;;;;;25.23;9.45;;;;;;;11.10;100.00;102074.00;5012540;28;20062;-75
2022/09/19 08:26:31;;;;;;;30.58;9.98;;;;;;;11.20;100.00;102069.59;5012956;28;20390;-75
2022/09/19 08:28:57;;;;;;;26.48;8.10;;;;;;;11.29;100.00;102077.38;5013329;28;20480;-75
2022/09/19 08:31:22;;;;;;;34.10;8.38;;;;;;;11.29;100.00;102076.50;5011913;28;20029;-75
2022/09/19 08:33:48;;;;;;;34.92;8.27;;;;;;;11.36;100.00;102081.69;5013053;28;20462;-75
2022/09/19 08:36:14;;;;;;;33.15;7.80;;;;;;;11.32;100.00;102082.56;5013372;28;20033;-75
2022/09/19 08:38:39;;;;;;;26.50;7.40;;;;;;;11.27;100.00;102078.25;5012017;28;20030;-75
2022/09/19 08:41:57;;;;;;;25.23;6.57;;;;;;;11.22;100.00;102089.59;5013078;28;20032;-75
2022/09/19 08:45:02;;;;;;;20.67;6.25;;;;;;;11.05;100.00;102086.19;5013065;28;20116;-75
2022/09/19 08:47:32;;;;;;;23.63;5.07;;;;;;;11.04;100.00;102086.22;5012703;28;20022;-75
2022/09/19 08:50:10;;;;;;;22.13;5.68;;;;;;;11.20;100.00;102101.78;5012860;28;20029;-75
2022/09/19 08:52:39;;;;;;;20.38;4.68;;;;;;;11.11;100.00;102094.00;5011882;28;20069;-75
2022/09/19 08:55:14;;;;;;;23.65;4.80;;;;;;;11.12;100.00;102092.28;5012974;28;20026;-75
2022/09/19 08:58:00;;;;;;;20.90;4.63;;;;;;;10.97;100.00;102088.88;5016156;28;20099;-75
2022/09/19 09:00:30;;;;;;;18.75;4.47;;;;;;;10.89;100.00;102095.00;5015965;28;20048;-75
2022/09/19 09:02:59;;;;;;;15.50;4.28;;;;;;;10.82;100.00;102088.06;5016820;28;20029;-75
2022/09/19 09:05:34;;;;;;;21.00;4.03;;;;;;;10.81;100.00;102092.41;5016632;28;20033;-75
2022/09/19 09:08:21;;;;;;;15.48;3.90;;;;;;;10.79;100.00;102088.97;5016125;28;20041;-75
2022/09/19 09:10:54;;;;;;;22.98;4.50;;;;;;;10.79;100.00;102083.75;5016714;28;20439;-75
2022/09/19 09:13:41;;;;;;;26.60;4.75;;;;;;;10.80;100.00;102089.84;5015875;28;20484;-75
2022/09/19 09:16:23;;;;;;;14.43;3.92;;;;;;;10.78;100.00;102095.03;5016890;28;20026;-75
2022/09/19 09:19:27;;;;;;;15.70;3.70;;;;;;;10.80;100.00;102085.47;5016726;28;20430;-75
2022/09/19 09:22:02;;;;;;;16.02;4.05;;;;;;;10.98;100.00;102085.38;5015191;28;20512;-75
2022/09/19 09:24:33;;;;;;;17.88;4.53;;;;;;;11.09;100.00;102087.94;5016394;28;20026;-75
2022/09/19 09:27:03;;;;;;;18.33;4.50;;;;;;;11.22;100.00;102083.53;5015735;28;20028;-75
2022/09/19 09:29:43;;;;;;;16.73;3.53;;;;;;;11.39;100.00;102081.66;5016127;28;20049;-75
2022/09/19 09:32:30;;;;;;;18.15;3.05;;;;;;;11.60;100.00;102085.84;5016569;28;20028;-75
2022/09/19 09:35:03;;;;;;;14.93;3.65;;;;;;;11.89;100.00;102084.75;5015347;28;20113;-75
2022/09/19 09:37:54;;;;;;;12.27;2.83;;;;;;;11.94;100.00;102068.16;5015895;28;20026;-75
2022/09/19 09:43:22;;;;;;;15.70;2.53;;;;;;;12.37;100.00;102078.19;4996175;28;20045;-75
2022/09/19 09:45:50;;;;;;;12.82;2.67;;;;;;;12.71;100.00;102080.38;5016102;28;20026;-75
2022/09/19 09:48:26;;;;;;;11.63;2.97;;;;;;;12.99;100.00;102086.13;5015238;28;20030;-75
2022/09/19 09:51:34;;;;;;;19.02;2.13;;;;;;;12.95;100.00;102083.56;5016009;28;20045;-75
2022/09/19 09:57:15;;;;;;;12.52;2.33;;;;;;;12.94;100.00;102081.84;5015435;28;20184;-75
2022/09/19 10:05:51;;;;;;;12.40;2.25;;;;;;;13.94;100.00;102073.31;5015421;28;20092;-75
2022/09/19 10:08:33;;;;;;;11.23;1.80;;;;;;;13.87;100.00;102077.81;5015034;28;20045;-75
2022/09/19 10:11:11;;;;;;;10.82;2.30;;;;;;;13.68;100.00;102073.78;5015039;28;20057;-75
2022/09/19 10:13:44;;;;;;;7.68;2.15;;;;;;;13.42;100.00;102077.69;5015228;28;20046;-75
2022/09/19 10:16:14;;;;;;;9.23;1.77;;;;;;;13.32;100.00;102090.03;5015355;28;20466;-75
2022/09/19 10:18:48;;;;;;;8.90;1.80;;;;;;;13.44;100.00;102083.78;5015372;28;20025;-75
2022/09/19 10:21:14;;;;;;;7.47;1.50;;;;;;;13.68;100.00;102082.50;5015646;28;20030;-74
2022/09/19 10:23:42;;;;;;;11.00;1.90;;;;;;;13.92;100.00;102083.81;5014305;28;20045;-74
2022/09/19 10:26:14;;;;;;;4.30;1.15;;;;;;;14.21;100.00;102093.78;5015154;28;20105;-75
2022/09/19 10:28:46;;;;;;;14.15;2.15;;;;;;;14.34;100.00;102089.19;5015190;28;20368;-74
2022/09/19 10:31:35;;;;;;;8.88;1.83;;;;;;;14.42;100.00;102089.00;5014574;28;20018;-74
2022/09/19 10:34:06;;;;;;;7.07;1.83;;;;;;;14.49;100.00;102088.03;5015229;28;20025;-74
2022/09/19 10:36:33;;;;;;;5.28;1.08;;;;;;;14.45;100.00;102087.22;5014840;28;20028;-75
2022/09/19 10:39:06;;;;;;;8.15;1.52;;;;;;;14.72;100.00;102087.59;5014676;28;20125;-75
2022/09/19 10:41:34;;;;;;;9.63;2.15;;;;;;;14.75;100.00;102079.66;5014893;28;20085;-74
2022/09/19 10:44:09;;;;;;;8.68;1.30;;;;;;;14.72;100.00;102096.31;5015101;28;20037;-74
2022/09/19 10:47:03;;;;;;;12.05;2.10;;;;;;;14.66;100.00;102101.69;5014060;28;20478;-74
2022/09/19 10:49:34;;;;;;;13.30;1.90;;;;;;;13.84;100.00;102103.22;5014772;28;20113;-75
2022/09/19 10:52:00;;;;;;;10.73;3.17;;;;;;;13.02;100.00;102104.41;5014020;28;20053;-79
2022/09/19 10:54:32;;;;;;;11.48;2.15;;;;;;;12.64;100.00;102099.66;5014731;28;20026;-78
2022/09/19 10:56:59;;;;;;;11.18;2.03;;;;;;;12.54;100.00;102098.91;5014899;28;20026;-79
2022/09/19 10:59:28;;;;;;;9.45;1.70;;;;;;;12.54;100.00;102096.28;5013630;28;20076;-78
2022/09/19 11:02:10;;;;;;;7.82;1.90;;;;;;;12.64;100.00;102092.66;5014602;28;20065;-76
2022/09/19 11:04:36;;;;;;;10.10;2.42;;;;;;;13.02;100.00;102087.84;5014531;28;20026;-76
2022/09/19 11:07:18;;;;;;;9.23;2.83;;;;;;;13.63;100.00;102091.31;5013831;28;20116;-76
2022/09/19 11:09:45;;;;;;;12.77;2.58;;;;;;;14.06;100.00;102086.22;5014223;28;20022;-76
2022/09/19 11:12:13;;;;;;;10.55;2.78;;;;;;;14.31;100.00;102083.13;5014660;28;20034;-76
2022/09/19 11:14:40;;;;;;;8.35;1.95;;;;;;;14.31;100.00;102089.22;5013699;28;20038;-75
2022/09/19 11:17:46;;;;;;;14.40;3.08;;;;;;;14.29;100.00;102084.03;5014359;28;20033;-76
2022/09/19 11:20:16;;;;;;;9.50;1.98;;;;;;;14.14;100.00;102081.69;5012511;28;20113;-75
2022/09/19 11:23:13;;;;;;;13.05;1.95;;;;;;;14.21;100.00;102082.44;5014076;28;20132;-75
2022/09/19 11:25:58;;;;;;;9.35;2.42;;;;;;;14.38;100.00;102088.22;5014131;28;20037;-76
2022/09/19 11:28:45;;;;;;;9.77;1.85;;;;;;;14.29;100.00;102086.66;5013051;28;20026;-75
2022/09/19 11:31:29;;;;;;;10.02;1.75;;;;;;;14.20;100.00;102085.97;5014510;28;20034;-75
2022/09/19 11:34:11;;;;;;;11.00;1.90;;;;;;;14.13;100.00;102079.97;5013319;28;20037;-75
2022/09/19 11:36:52;;;;;;;6.40;1.40;;;;;;;14.04;100.00;102082.75;5013739;28;20101;-75
2022/09/19 11:39:20;;;;;;;8.43;1.90;;;;;;;13.76;100.00;102088.47;5014288;28;20037;-75
2022/09/19 11:42:12;;;;;;;6.18;1.90;;;;;;;13.53;100.00;102096.69;5013071;28;20076;-75
2022/09/19 11:44:56;;;;;;;8.95;2.10;;;;;;;13.35;100.00;102097.00;5013684;28;20056;-75
2022/09/19 11:47:28;;;;;;;6.97;1.90;;;;;;;13.32;100.00;102091.81;5013408;28;20107;-75
2022/09/19 11:50:39;;;;;;;7.20;1.80;;;;;;;13.46;100.00;102089.84;5013082;28;20121;-75